Time;durP1;ratioP1;P1;durP2;ratioP2;P2;SDS_P1;SDS_P2;PMS_P1;PMS_P2;Temp;Humidity;BMP_temperature;BMP_pressure;BME280_temperature;BME280_humidity;BME280_pressure;Samples;Min_cycle;Max_cycle;Signal;HPM_P1;HPM_P2
2021/05/31 00:01:42;;;;;;;7.40;4.83;;;8.60;81.50;;;;;;5026376;28;20262;-60
2021/05/31 00:04:08;;;;;;;5.87;4.50;;;8.50;82.50;;;;;;5030182;28;20215;-60
2021/05/31 00:06:42;;;;;;;6.53;4.50;;;8.50;83.00;;;;;;5028241;28;20653;-60
2021/05/31 00:09:08;;;;;;;7.57;4.87;;;8.50;83.20;;;;;;5022238;28;20182;-60
2021/05/31 00:11:34;;;;;;;6.73;4.80;;;8.40;83.00;;;;;;5027423;28;20903;-59
2021/05/31 00:14:00;;;;;;;12.53;4.80;;;8.40;84.00;;;;;;5029051;28;20505;-59
2021/05/31 00:16:25;;;;;;;7.77;4.90;;;8.30;83.80;;;;;;5011382;28;20869;-60
2021/05/31 00:18:51;;;;;;;5.83;4.77;;;8.30;83.60;;;;;;5024737;28;20183;-59
2021/05/31 00:21:20;;;;;;;6.50;4.63;;;8.20;84.40;;;;;;5011761;28;20544;-60
2021/05/31 00:23:46;;;;;;;5.73;4.40;;;8.20;84.90;;;;;;5028912;28;20175;-58
2021/05/31 00:26:15;;;;;;;5.67;4.03;;;8.10;85.30;;;;;;5010346;28;20426;-60
2021/05/31 00:28:41;;;;;;;6.67;4.90;;;8.10;85.50;;;;;;5026189;28;20484;-59
2021/05/31 00:31:07;;;;;;;6.60;4.50;;;8.10;85.70;;;;;;5010992;28;20807;-59
2021/05/31 00:33:32;;;;;;;5.87;4.10;;;8.00;84.70;;;;;;5029360;28;20425;-60
2021/05/31 00:35:58;;;;;;;11.37;5.00;;;8.00;84.40;;;;;;5006482;28;20188;-59
2021/05/31 00:38:24;;;;;;;7.43;5.20;;;8.00;83.70;;;;;;4992619;28;20193;-60
2021/05/31 00:40:49;;;;;;;5.63;4.20;;;8.00;84.10;;;;;;5027623;28;20199;-60
2021/05/31 00:43:15;;;;;;;6.43;4.00;;;7.90;83.70;;;;;;5015728;28;20174;-60
2021/05/31 00:45:40;;;;;;;9.17;4.93;;;7.90;83.90;;;;;;5032130;28;20176;-59
2021/05/31 00:48:06;;;;;;;7.43;5.23;;;7.90;83.80;;;;;;5033436;28;20312;-59
2021/05/31 00:50:32;;;;;;;10.90;4.63;;;7.90;84.10;;;;;;5022069;28;20213;-60
2021/05/31 00:52:58;;;;;;;6.80;4.90;;;7.90;85.20;;;;;;5035570;28;20179;-60
2021/05/31 00:55:23;;;;;;;6.93;4.93;;;7.80;85.00;;;;;;5032682;28;20465;-60
2021/05/31 00:57:50;;;;;;;6.10;4.60;;;7.80;86.60;;;;;;5015507;28;20195;-58
2021/05/31 01:00:16;;;;;;;8.50;5.07;;;7.80;87.20;;;;;;5031048;28;20200;-59
2021/05/31 01:02:42;;;;;;;7.30;5.20;;;7.80;86.40;;;;;;5023082;28;20438;-60
2021/05/31 01:05:08;;;;;;;6.73;4.67;;;7.80;85.90;;;;;;5019884;28;20418;-60
2021/05/31 01:07:44;;;;;;;7.43;4.70;;;7.70;86.20;;;;;;5034394;28;20448;-60
2021/05/31 01:10:20;;;;;;;6.63;4.50;;;7.70;86.40;;;;;;5026165;28;20934;-60
2021/05/31 01:12:55;;;;;;;7.70;4.80;;;7.70;86.70;;;;;;5001319;28;20518;-60
2021/05/31 01:15:23;;;;;;;6.83;4.30;;;7.70;87.20;;;;;;5005119;28;20809;-60
2021/05/31 01:18:10;;;;;;;6.77;4.50;;;7.60;87.20;;;;;;5032909;28;20442;-60
2021/05/31 01:20:55;;;;;;;8.23;5.10;;;7.60;87.30;;;;;;5029354;28;20884;-60
2021/05/31 01:23:23;;;;;;;4.80;4.30;;;7.50;87.40;;;;;;5027131;28;21151;-59
2021/05/31 01:26:03;;;;;;;7.63;4.70;;;7.50;86.80;;;;;;5031144;28;20441;-59
2021/05/31 01:28:50;;;;;;;8.60;4.60;;;7.40;86.40;;;;;;5030469;28;20437;-60
2021/05/31 01:31:20;;;;;;;6.17;4.50;;;7.40;86.30;;;;;;5027157;28;20406;-59
2021/05/31 01:33:48;;;;;;;4.83;4.30;;;7.30;86.60;;;;;;5025904;28;20472;-60
2021/05/31 01:36:15;;;;;;;7.10;4.47;;;7.30;87.40;;;;;;5035990;28;20450;-59
2021/05/31 01:38:42;;;;;;;8.83;4.67;;;7.20;87.50;;;;;;5020990;28;20547;-59
2021/05/31 01:41:10;;;;;;;5.63;4.50;;;7.20;88.40;;;;;;5030986;28;20473;-59
2021/05/31 01:43:38;;;;;;;6.20;4.67;;;7.10;89.10;;;;;;5027079;28;20458;-58
2021/05/31 01:46:04;;;;;;;4.33;3.90;;;7.10;89.70;;;;;;5032836;28;20434;-59
2021/05/31 01:48:30;;;;;;;6.87;4.90;;;7.10;89.80;;;;;;5029880;28;20466;-59
2021/05/31 01:50:59;;;;;;;7.97;4.40;;;7.00;89.90;;;;;;5029607;28;20445;-59
2021/05/31 01:53:26;;;;;;;5.10;4.50;;;7.00;89.40;;;;;;5023404;28;20447;-59
2021/05/31 01:55:52;;;;;;;6.70;4.70;;;7.00;90.10;;;;;;5014523;28;20995;-59
2021/05/31 01:58:19;;;;;;;8.23;4.50;;;7.00;90.20;;;;;;5032031;28;20426;-59
2021/05/31 02:00:44;;;;;;;6.50;5.00;;;7.00;90.20;;;;;;5030105;28;20540;-60
2021/05/31 02:03:10;;;;;;;4.93;4.30;;;6.90;90.50;;;;;;5030802;28;20470;-59
2021/05/31 02:05:36;;;;;;;10.47;5.00;;;6.90;90.90;;;;;;5038604;28;20233;-59
2021/05/31 02:08:02;;;;;;;10.53;5.03;;;6.90;90.90;;;;;;5038914;28;20195;-59
2021/05/31 02:10:28;;;;;;;7.17;4.60;;;6.90;91.10;;;;;;5042675;28;20183;-59
2021/05/31 02:12:56;;;;;;;7.10;4.73;;;6.80;91.00;;;;;;5010945;28;20530;-59
2021/05/31 02:15:29;;;;;;;7.63;5.30;;;6.80;91.10;;;;;;5022836;28;20187;-60
2021/05/31 02:18:06;;;;;;;8.73;5.10;;;6.80;91.10;;;;;;5032227;28;20857;-59
2021/05/31 02:20:35;;;;;;;7.90;4.47;;;6.80;91.10;;;;;;5030404;28;20486;-59
2021/05/31 02:23:05;;;;;;;6.63;4.53;;;6.70;91.30;;;;;;5013686;28;20426;-59
2021/05/31 02:25:31;;;;;;;8.70;6.00;;;6.70;91.40;;;;;;5013836;28;20929;-58
2021/05/31 02:27:58;;;;;;;7.07;4.90;;;6.70;91.40;;;;;;5029164;28;20493;-59
2021/05/31 02:30:25;;;;;;;7.63;5.07;;;6.70;91.70;;;;;;5028475;28;20969;-59
2021/05/31 02:33:02;;;;;;;7.03;4.83;;;6.60;92.00;;;;;;5031432;28;20415;-59
2021/05/31 02:35:31;;;;;;;6.87;5.07;;;6.60;92.00;;;;;;5013853;28;20914;-58
2021/05/31 02:37:58;;;;;;;9.13;5.03;;;6.60;92.30;;;;;;5024569;28;20880;-58
2021/05/31 02:40:25;;;;;;;5.50;4.77;;;6.60;92.30;;;;;;5020485;28;20950;-59
2021/05/31 02:42:56;;;;;;;11.13;5.63;;;6.60;92.40;;;;;;5030612;28;20488;-59
2021/05/31 02:45:24;;;;;;;5.60;5.00;;;6.60;92.30;;;;;;5029512;28;20425;-60
2021/05/31 02:47:51;;;;;;;7.80;5.30;;;6.50;92.40;;;;;;5012332;28;20439;-59
2021/05/31 02:50:17;;;;;;;7.60;4.90;;;6.50;92.40;;;;;;5028447;28;20504;-59
2021/05/31 02:52:43;;;;;;;9.73;5.13;;;6.50;92.20;;;;;;5024609;28;20447;-59
2021/05/31 02:55:14;;;;;;;7.50;4.93;;;6.50;92.10;;;;;;5037272;28;20483;-58
2021/05/31 02:57:41;;;;;;;10.77;5.40;;;6.40;92.10;;;;;;5039877;28;20454;-60
2021/05/31 03:00:10;;;;;;;7.77;4.90;;;6.40;92.20;;;;;;5030446;28;20508;-60
2021/05/31 03:02:36;;;;;;;10.67;5.33;;;6.40;92.40;;;;;;4995072;28;20587;-58
2021/05/31 03:05:03;;;;;;;6.67;5.03;;;6.30;92.40;;;;;;5026922;28;20438;-59
2021/05/31 03:07:29;;;;;;;7.60;4.80;;;6.30;92.50;;;;;;5028549;28;20450;-59
2021/05/31 03:09:54;;;;;;;9.33;5.33;;;6.30;92.60;;;;;;5021751;28;20427;-59
2021/05/31 03:12:21;;;;;;;7.10;4.80;;;6.20;92.50;;;;;;5030399;28;20190;-57
2021/05/31 03:14:48;;;;;;;9.07;5.77;;;6.20;92.50;;;;;;5032435;28;20249;-60
2021/05/31 03:17:14;;;;;;;8.23;5.17;;;6.10;92.40;;;;;;5030599;28;20430;-59
2021/05/31 03:19:40;;;;;;;7.50;5.20;;;6.00;92.40;;;;;;5028104;28;20751;-60
2021/05/31 03:22:05;;;;;;;9.43;4.90;;;6.00;92.90;;;;;;5029701;28;20445;-59
2021/05/31 03:24:31;;;;;;;9.70;5.50;;;6.00;93.30;;;;;;5013655;28;20184;-59
2021/05/31 03:26:57;;;;;;;14.90;5.87;;;6.00;93.60;;;;;;5030395;28;20245;-59
2021/05/31 03:29:23;;;;;;;6.27;4.70;;;6.00;93.60;;;;;;5028386;28;20183;-59
2021/05/31 03:31:48;;;;;;;8.83;5.30;;;6.00;93.40;;;;;;5033395;28;20203;-58
2021/05/31 03:34:14;;;;;;;7.20;5.50;;;6.10;93.30;;;;;;5030767;28;20560;-60
2021/05/31 03:36:39;;;;;;;9.10;5.10;;;6.00;92.90;;;;;;5019016;28;20204;-59
2021/05/31 03:39:07;;;;;;;6.47;4.67;;;6.00;92.60;;;;;;5009060;28;20227;-62
2021/05/31 03:41:33;;;;;;;7.00;4.93;;;6.00;92.50;;;;;;5029344;28;20191;-59
2021/05/31 03:43:59;;;;;;;6.40;4.70;;;6.00;92.30;;;;;;5008738;28;21078;-59
2021/05/31 03:46:25;;;;;;;7.00;4.60;;;5.90;92.20;;;;;;5024386;28;20525;-59
2021/05/31 03:48:52;;;;;;;5.80;4.27;;;5.90;92.00;;;;;;5029285;28;20238;-59
2021/05/31 03:51:21;;;;;;;8.97;4.50;;;5.90;91.80;;;;;;5030624;28;20199;-59
2021/05/31 03:53:47;;;;;;;8.17;4.97;;;5.80;91.50;;;;;;5024417;28;20805;-58
2021/05/31 03:56:13;;;;;;;8.90;4.73;;;5.80;91.70;;;;;;5036523;28;20421;-59
2021/05/31 03:58:41;;;;;;;5.27;4.10;;;5.80;91.50;;;;;;5026725;28;20210;-60
2021/05/31 04:01:07;;;;;;;5.90;4.63;;;5.70;91.50;;;;;;5025036;28;20462;-59
2021/05/31 04:03:35;;;;;;;9.37;5.17;;;5.70;91.70;;;;;;5025446;28;20716;-59
2021/05/31 04:06:20;;;;;;;6.93;4.20;;;5.70;91.80;;;;;;5026201;28;20454;-59
2021/05/31 04:11:39;;;;;;;6.57;4.33;;;5.80;92.80;;;;;;5020463;28;20441;-59
2021/05/31 04:14:09;;;;;;;7.40;4.30;;;5.80;92.70;;;;;;5011548;28;20914;-58
2021/05/31 04:16:37;;;;;;;9.70;4.20;;;5.90;92.80;;;;;;5024698;28;20486;-60
2021/05/31 04:19:04;;;;;;;7.50;4.83;;;6.00;92.80;;;;;;5010362;28;20698;-59
2021/05/31 04:21:30;;;;;;;7.53;4.67;;;6.00;92.60;;;;;;5018186;28;20461;-60
2021/05/31 04:23:56;;;;;;;7.10;5.87;;;6.10;92.60;;;;;;5030166;28;20563;-60
2021/05/31 04:26:22;;;;;;;8.10;5.07;;;6.10;92.30;;;;;;5013073;28;20525;-59
2021/05/31 04:28:48;;;;;;;5.47;4.47;;;6.20;92.40;;;;;;5026915;28;20428;-59
2021/05/31 04:31:14;;;;;;;6.43;4.90;;;6.30;92.60;;;;;;5029000;28;20625;-60
2021/05/31 04:33:40;;;;;;;7.00;4.80;;;6.30;92.20;;;;;;5015041;28;20439;-59
2021/05/31 04:36:05;;;;;;;9.40;5.10;;;6.30;92.20;;;;;;5024890;28;20184;-59
2021/05/31 04:38:31;;;;;;;9.70;4.67;;;6.40;92.30;;;;;;5026838;28;20956;-59
2021/05/31 04:40:57;;;;;;;8.87;5.53;;;6.40;92.20;;;;;;5021756;28;20211;-59
2021/05/31 04:43:23;;;;;;;10.93;4.97;;;6.50;92.50;;;;;;5029175;28;20180;-59
2021/05/31 04:45:49;;;;;;;7.90;4.80;;;6.50;92.20;;;;;;5028502;28;20176;-60
2021/05/31 04:48:14;;;;;;;7.60;4.17;;;6.60;92.20;;;;;;5002520;28;20656;-60
2021/05/31 04:50:40;;;;;;;10.50;4.40;;;6.60;91.60;;;;;;5020496;28;20430;-59
2021/05/31 04:53:06;;;;;;;5.53;4.60;;;6.70;91.60;;;;;;5016352;28;20254;-59
2021/05/31 04:55:34;;;;;;;8.03;5.00;;;6.70;91.80;;;;;;5024271;28;20188;-59
2021/05/31 04:58:01;;;;;;;9.27;5.60;;;6.80;91.40;;;;;;5026294;28;20203;-59
2021/05/31 05:00:27;;;;;;;9.07;5.40;;;6.90;91.10;;;;;;5027972;28;20642;-58
2021/05/31 05:02:52;;;;;;;10.10;6.17;;;7.00;91.00;;;;;;5006754;28;20509;-59
2021/05/31 05:05:18;;;;;;;9.47;5.33;;;7.10;90.60;;;;;;5023419;28;20180;-60
2021/05/31 05:07:46;;;;;;;10.60;5.63;;;7.20;90.60;;;;;;5009968;28;20222;-60
2021/05/31 05:10:19;;;;;;;10.17;5.97;;;7.30;89.50;;;;;;5022308;28;20211;-60
2021/05/31 05:12:49;;;;;;;7.93;5.57;;;7.50;88.80;;;;;;5011929;28;20962;-59
2021/05/31 05:15:16;;;;;;;10.87;5.10;;;7.60;88.50;;;;;;5027215;28;21167;-59
2021/05/31 05:17:43;;;;;;;9.27;4.57;;;7.70;87.30;;;;;;5028484;28;20552;-61
2021/05/31 05:20:10;;;;;;;8.47;5.13;;;7.80;86.90;;;;;;5011282;28;20868;-59
2021/05/31 05:22:36;;;;;;;7.73;4.40;;;7.90;85.00;;;;;;5029132;28;20441;-60
2021/05/31 05:25:01;;;;;;;6.73;4.40;;;7.90;83.80;;;;;;5022345;28;20471;-64
2021/05/31 05:27:27;;;;;;;11.17;4.37;;;8.00;82.90;;;;;;5036549;28;20438;-61
2021/05/31 05:29:53;;;;;;;8.57;4.57;;;8.10;82.00;;;;;;5031328;28;20572;-60
2021/05/31 05:32:19;;;;;;;9.97;4.87;;;8.20;81.80;;;;;;5035564;28;20580;-59
2021/05/31 05:34:44;;;;;;;8.73;5.27;;;8.40;80.10;;;;;;5022922;28;20595;-60
2021/05/31 05:37:31;;;;;;;6.27;4.43;;;8.50;79.80;;;;;;5034949;28;20453;-61
2021/05/31 05:49:48;;;;;;;15.77;5.20;;;9.30;76.40;;;;;;5027712;28;20551;-60
2021/05/31 05:52:14;;;;;;;10.30;4.90;;;9.50;74.80;;;;;;5030091;28;20486;-60
2021/05/31 05:54:40;;;;;;;8.30;4.40;;;9.70;73.30;;;;;;5029226;28;20918;-60
2021/05/31 05:57:07;;;;;;;11.20;4.80;;;9.80;72.50;;;;;;5027062;28;20923;-59
2021/05/31 05:59:33;;;;;;;6.80;4.13;;;10.00;70.60;;;;;;5012075;28;20454;-60
2021/05/31 06:01:59;;;;;;;10.30;4.60;;;10.10;70.80;;;;;;5020055;28;20527;-60
2021/05/31 06:04:24;;;;;;;8.33;4.17;;;10.20;71.00;;;;;;5033368;28;21092;-59
2021/05/31 06:06:51;;;;;;;5.73;4.20;;;10.30;69.30;;;;;;5033034;28;20720;-61
2021/05/31 06:09:17;;;;;;;6.80;4.27;;;10.40;68.30;;;;;;5019346;28;20183;-60
2021/05/31 06:11:43;;;;;;;9.10;4.47;;;10.60;68.50;;;;;;5026329;28;20431;-61
2021/05/31 06:14:09;;;;;;;9.63;4.53;;;10.70;66.70;;;;;;5013586;28;20875;-60
2021/05/31 06:16:36;;;;;;;8.00;4.20;;;10.90;65.40;;;;;;5026746;28;20454;-60
2021/05/31 06:19:02;;;;;;;12.20;4.10;;;11.00;62.60;;;;;;5003639;28;20520;-61
2021/05/31 06:21:28;;;;;;;11.20;3.83;;;11.10;61.20;;;;;;5028507;28;20462;-60
2021/05/31 06:23:54;;;;;;;9.83;3.67;;;11.20;60.50;;;;;;5028306;28;20728;-57
2021/05/31 06:26:20;;;;;;;5.43;4.10;;;11.40;59.60;;;;;;5037766;28;20170;-61
2021/05/31 06:28:46;;;;;;;8.60;3.90;;;11.50;59.60;;;;;;5023515;28;20430;-61
2021/05/31 06:31:12;;;;;;;5.37;3.73;;;11.60;59.50;;;;;;5023313;28;22557;-60
2021/05/31 06:33:37;;;;;;;7.97;3.30;;;11.70;57.60;;;;;;5023053;28;20184;-61
2021/05/31 06:36:07;;;;;;;5.40;3.43;;;11.90;56.80;;;;;;5032590;28;20558;-60
2021/05/31 06:38:33;;;;;;;11.03;4.00;;;12.10;55.40;;;;;;5030020;28;20207;-58
2021/05/31 06:40:59;;;;;;;5.00;3.37;;;12.20;55.00;;;;;;5038057;28;20468;-61
2021/05/31 06:43:25;;;;;;;7.37;3.40;;;12.40;54.70;;;;;;5038758;28;20431;-61
2021/05/31 06:45:51;;;;;;;7.67;3.23;;;12.50;52.90;;;;;;5034955;28;20435;-61
2021/05/31 06:48:16;;;;;;;8.17;3.27;;;12.60;51.60;;;;;;5041625;28;20203;-61
2021/05/31 06:50:43;;;;;;;4.50;3.60;;;12.80;52.10;;;;;;5041148;28;20207;-60
2021/05/31 06:53:09;;;;;;;5.00;3.03;;;12.90;51.00;;;;;;5023614;28;20252;-61
2021/05/31 06:55:35;;;;;;;4.60;2.90;;;13.00;50.90;;;;;;5027811;28;21141;-60
2021/05/31 06:58:01;;;;;;;3.70;3.00;;;13.20;50.60;;;;;;5026670;28;20199;-61
2021/05/31 07:00:28;;;;;;;3.87;3.07;;;13.30;50.60;;;;;;5026115;28;20203;-61
2021/05/31 07:02:56;;;;;;;8.90;3.17;;;13.50;50.20;;;;;;5027571;28;20606;-61
2021/05/31 07:05:23;;;;;;;5.33;2.97;;;13.60;49.10;;;;;;5029174;28;20521;-62
2021/05/31 07:07:50;;;;;;;5.13;2.80;;;13.70;48.30;;;;;;5021319;28;20481;-61
2021/05/31 07:10:17;;;;;;;4.13;3.20;;;13.80;47.60;;;;;;5025422;28;20449;-61
2021/05/31 07:12:43;;;;;;;4.30;2.83;;;13.90;47.30;;;;;;5022394;28;20779;-61
2021/05/31 07:15:13;;;;;;;3.73;2.80;;;14.00;47.30;;;;;;5025490;28;20430;-61
2021/05/31 07:17:40;;;;;;;8.07;2.83;;;14.10;46.10;;;;;;5026324;28;21166;-60
2021/05/31 07:20:11;;;;;;;3.30;2.60;;;14.10;46.00;;;;;;5028681;28;20474;-61
2021/05/31 07:22:38;;;;;;;5.00;3.00;;;14.20;45.80;;;;;;5011356;28;20426;-62
2021/05/31 07:25:05;;;;;;;3.23;2.90;;;14.30;46.10;;;;;;5010090;28;20422;-61
2021/05/31 07:27:31;;;;;;;3.60;2.77;;;14.40;46.30;;;;;;5030040;28;20438;-61
2021/05/31 07:29:56;;;;;;;3.80;2.63;;;14.50;46.10;;;;;;5030277;28;20493;-61
2021/05/31 07:32:22;;;;;;;4.53;3.13;;;14.60;45.60;;;;;;5025976;28;20218;-61
2021/05/31 07:34:48;;;;;;;3.23;2.93;;;14.70;44.40;;;;;;5026962;28;20297;-61
2021/05/31 07:37:13;;;;;;;9.93;3.07;;;14.80;44.80;;;;;;5025210;28;20199;-61
2021/05/31 07:39:39;;;;;;;10.10;3.03;;;14.90;44.10;;;;;;5012401;28;20204;-63
2021/05/31 07:42:06;;;;;;;3.70;2.70;;;15.00;44.10;;;;;;5030374;28;20255;-61
2021/05/31 07:44:32;;;;;;;4.17;2.70;;;15.00;44.10;;;;;;5004240;28;20737;-61
2021/05/31 07:46:58;;;;;;;4.47;3.30;;;15.10;43.70;;;;;;5017219;28;20490;-61
2021/05/31 07:49:23;;;;;;;5.67;2.90;;;15.20;42.50;;;;;;5026550;28;20434;-61
2021/05/31 07:51:51;;;;;;;5.93;2.50;;;15.30;42.40;;;;;;5006976;28;20439;-62
2021/05/31 07:54:18;;;;;;;3.13;2.70;;;15.40;42.50;;;;;;5026903;28;20187;-62
2021/05/31 07:56:43;;;;;;;4.50;2.70;;;15.40;41.60;;;;;;5026517;28;20513;-61
2021/05/31 07:59:09;;;;;;;5.33;2.87;;;15.50;40.60;;;;;;5022467;28;20514;-61
2021/05/31 08:01:35;;;;;;;3.73;2.70;;;15.50;40.40;;;;;;5026235;28;20172;-61
2021/05/31 08:04:05;;;;;;;6.73;3.10;;;15.60;41.00;;;;;;5025300;28;20175;-61
2021/05/31 08:06:32;;;;;;;4.20;2.60;;;15.60;40.00;;;;;;5035874;28;20450;-61
2021/05/31 08:08:58;;;;;;;7.63;3.20;;;15.70;40.30;;;;;;5029231;28;20435;-61
2021/05/31 08:11:23;;;;;;;3.40;2.70;;;15.70;40.10;;;;;;5016410;28;20429;-61
2021/05/31 08:13:49;;;;;;;3.50;2.60;;;15.80;40.60;;;;;;5029374;28;20172;-61
2021/05/31 08:16:16;;;;;;;3.77;2.53;;;15.80;40.20;;;;;;5001228;28;20272;-63
2021/05/31 08:18:43;;;;;;;6.20;3.20;;;15.90;39.50;;;;;;5027033;28;20594;-60
2021/05/31 08:21:09;;;;;;;6.83;3.00;;;15.90;39.10;;;;;;5024204;28;20474;-60
2021/05/31 08:23:35;;;;;;;4.70;2.83;;;15.90;39.10;;;;;;5027257;28;21138;-61
2021/05/31 08:26:00;;;;;;;4.87;2.67;;;16.00;38.30;;;;;;5004833;28;20438;-61
2021/05/31 08:28:26;;;;;;;5.53;2.23;;;16.00;38.30;;;;;;5018974;28;20203;-61
2021/05/31 08:30:52;;;;;;;4.60;2.60;;;16.10;39.20;;;;;;5027822;28;20192;-61
2021/05/31 08:33:17;;;;;;;3.77;3.17;;;16.10;39.20;;;;;;5027650;28;20625;-62
2021/05/31 08:35:44;;;;;;;6.73;2.83;;;16.20;39.90;;;;;;5021572;28;20186;-61
2021/05/31 08:38:10;;;;;;;4.83;3.03;;;16.30;39.20;;;;;;5021327;28;20205;-61
2021/05/31 08:40:37;;;;;;;2.63;2.43;;;16.30;38.60;;;;;;5021429;28;20818;-62
2021/05/31 08:43:03;;;;;;;5.67;2.40;;;16.40;38.30;;;;;;5022631;28;20473;-62
2021/05/31 08:45:31;;;;;;;4.33;2.47;;;16.50;38.60;;;;;;5018917;28;20438;-61
2021/05/31 08:47:59;;;;;;;9.10;3.30;;;16.60;39.00;;;;;;5059246;23;20556;-57
2021/05/31 08:50:29;;;;;;;6.20;2.40;;;16.60;38.90;;;;;;5059686;28;20429;-57
2021/05/31 08:52:56;;;;;;;9.07;3.03;;;16.70;40.50;;;;;;5060381;28;20424;-57
2021/05/31 08:55:24;;;;;;;3.20;2.50;;;16.80;38.80;;;;;;5053810;28;20484;-59
2021/05/31 08:57:50;;;;;;;4.93;3.10;;;16.80;38.30;;;;;;5055446;28;20453;-61
2021/05/31 09:00:26;;;;;;;10.40;2.90;;;16.90;39.10;;;;;;5041871;28;20453;-59
2021/05/31 09:02:53;;;;;;;2.83;2.63;;;17.00;39.70;;;;;;5049289;28;20743;-59
2021/05/31 09:05:39;;;;;;;4.60;2.80;;;17.10;39.10;;;;;;5044670;28;20429;-62
2021/05/31 09:08:21;;;;;;;4.13;2.90;;;17.20;38.80;;;;;;5042851;28;20445;-62
2021/05/31 09:10:54;;;;;;;8.47;2.50;;;17.20;38.20;;;;;;5046952;28;20827;-57
2021/05/31 09:13:28;;;;;;;9.87;3.03;;;17.30;38.70;;;;;;5046092;28;20508;-57
2021/05/31 09:16:09;;;;;;;3.60;2.50;;;17.40;39.30;;;;;;5044975;28;20444;-58
2021/05/31 09:18:37;;;;;;;3.83;2.80;;;17.50;39.00;;;;;;5037507;28;20476;-60
2021/05/31 09:21:14;;;;;;;3.23;2.90;;;17.50;38.80;;;;;;5042185;28;20474;-56
2021/05/31 09:23:40;;;;;;;3.90;2.43;;;17.60;38.40;;;;;;5045112;28;20432;-56
2021/05/31 09:26:07;;;;;;;2.97;2.50;;;17.70;37.50;;;;;;5041795;28;20422;-57
2021/05/31 09:28:33;;;;;;;3.33;2.30;;;17.80;37.30;;;;;;5047610;28;20562;-57
2021/05/31 09:30:59;;;;;;;3.27;2.87;;;17.90;36.90;;;;;;5048418;28;20405;-56
2021/05/31 09:33:25;;;;;;;6.90;3.27;;;18.00;36.90;;;;;;5039188;28;20438;-56
2021/05/31 09:35:51;;;;;;;4.00;2.77;;;18.20;36.80;;;;;;5035321;28;20422;-57
2021/05/31 09:38:20;;;;;;;4.53;2.90;;;18.30;37.70;;;;;;5031191;28;20191;-60
2021/05/31 09:40:56;;;;;;;5.70;2.40;;;18.40;38.20;;;;;;5039614;28;20808;-59
2021/05/31 09:43:24;;;;;;;16.70;5.93;;;18.50;38.10;;;;;;5040985;28;20530;-63
2021/05/31 09:45:51;;;;;;;8.80;2.93;;;18.60;37.70;;;;;;5043562;28;20425;-60
2021/05/31 09:48:17;;;;;;;2.60;2.30;;;18.70;36.30;;;;;;5025628;28;20492;-58
2021/05/31 09:50:58;;;;;;;4.80;2.87;;;18.80;36.80;;;;;;5042434;28;20886;-58
2021/05/31 09:53:35;;;;;;;21.10;8.17;;;18.90;36.70;;;;;;5026052;28;20695;-59
2021/05/31 09:56:11;;;;;;;4.37;2.57;;;18.90;37.50;;;;;;5028036;28;20434;-59
2021/05/31 09:59:03;;;;;;;33.67;12.33;;;19.00;35.60;;;;;;5044561;28;20456;-60
2021/05/31 10:01:41;;;;;;;29.97;6.20;;;19.00;35.90;;;;;;5029246;28;20438;-63
2021/05/31 10:04:25;;;;;;;4.17;2.50;;;19.10;36.50;;;;;;5047156;28;20418;-59
2021/05/31 10:09:35;;;;;;;4.53;2.67;;;19.40;36.90;;;;;;5045243;28;20977;-60
2021/05/31 10:12:01;;;;;;;2.50;2.30;;;19.50;37.20;;;;;;5042001;28;20430;-60
2021/05/31 10:14:28;;;;;;;3.97;2.80;;;19.50;36.90;;;;;;5023292;28;21423;-58
2021/05/31 10:16:54;;;;;;;4.07;2.87;;;19.60;37.00;;;;;;5042443;28;20448;-57
2021/05/31 10:19:20;;;;;;;5.20;2.90;;;19.70;37.40;;;;;;5045910;28;20460;-57
2021/05/31 10:21:46;;;;;;;3.43;2.43;;;19.80;38.80;;;;;;5044898;28;20434;-59
2021/05/31 10:24:12;;;;;;;4.33;2.43;;;19.90;38.50;;;;;;5041552;28;20433;-60
2021/05/31 10:26:38;;;;;;;4.03;2.77;;;19.90;37.50;;;;;;5045094;28;20174;-60
2021/05/31 10:29:05;;;;;;;3.90;2.20;;;20.00;36.10;;;;;;5044881;28;20469;-59
2021/05/31 10:31:43;;;;;;;8.50;2.63;;;20.20;36.00;;;;;;5045711;28;20495;-58
2021/05/31 10:34:18;;;;;;;3.17;2.47;;;20.30;35.00;;;;;;5045560;28;20487;-58
2021/05/31 10:36:50;;;;;;;4.00;2.60;;;20.40;34.60;;;;;;5042891;28;20527;-58
2021/05/31 10:39:24;;;;;;;5.67;2.50;;;20.40;35.30;;;;;;5045323;28;20541;-58
2021/05/31 10:41:51;;;;;;;7.50;2.70;;;20.50;37.20;;;;;;5038791;28;20494;-59
2021/05/31 10:44:18;;;;;;;8.73;2.93;;;20.60;36.00;;;;;;5029634;28;21047;-56
2021/05/31 10:46:45;;;;;;;3.30;2.20;;;20.60;35.80;;;;;;5034500;28;20480;-58
2021/05/31 10:49:16;;;;;;;4.10;2.23;;;20.70;35.20;;;;;;5023958;28;20488;-58
2021/05/31 10:51:42;;;;;;;3.60;2.37;;;20.80;35.50;;;;;;5033273;28;20711;-59
2021/05/31 10:54:15;;;;;;;3.10;2.30;;;20.80;33.70;;;;;;5030844;28;20584;-59
2021/05/31 10:56:42;;;;;;;5.53;2.27;;;20.90;34.40;;;;;;5037010;28;20441;-58
2021/05/31 10:59:09;;;;;;;2.60;2.40;;;20.90;35.30;;;;;;5032339;28;20444;-61
2021/05/31 11:01:39;;;;;;;3.50;2.37;;;21.10;35.10;;;;;;5036420;28;20433;-62
2021/05/31 11:04:20;;;;;;;6.20;2.37;;;21.30;34.70;;;;;;5034601;28;20436;-59
2021/05/31 11:06:47;;;;;;;6.70;2.60;;;21.40;34.10;;;;;;5040876;28;20433;-60
2021/05/31 11:09:15;;;;;;;5.93;2.33;;;21.50;33.90;;;;;;5036820;28;20460;-61
2021/05/31 11:11:44;;;;;;;3.10;2.30;;;21.60;33.70;;;;;;5041567;28;20567;-59
2021/05/31 11:14:14;;;;;;;5.93;2.70;;;21.70;35.30;;;;;;5034806;28;20425;-60
2021/05/31 11:16:55;;;;;;;5.10;2.50;;;21.80;34.30;;;;;;5036458;28;20613;-59
2021/05/31 11:19:41;;;;;;;6.70;2.73;;;21.90;33.90;;;;;;5041558;28;20514;-59
2021/05/31 11:22:21;;;;;;;2.67;2.13;;;21.90;33.10;;;;;;5038694;28;21129;-58
2021/05/31 11:24:59;;;;;;;3.17;2.30;;;22.00;32.70;;;;;;5038687;28;20991;-57
2021/05/31 11:27:40;;;;;;;2.27;2.00;;;22.10;33.50;;;;;;5039202;28;20449;-60
2021/05/31 11:30:19;;;;;;;3.53;2.60;;;22.10;33.50;;;;;;5037559;28;20434;-57
2021/05/31 11:32:45;;;;;;;3.80;2.43;;;22.20;34.20;;;;;;5034890;28;20530;-59
2021/05/31 11:35:14;;;;;;;5.47;2.33;;;22.20;33.60;;;;;;5037078;28;21003;-58
2021/05/31 11:37:43;;;;;;;3.90;2.53;;;22.30;34.10;;;;;;5035484;28;20840;-59
2021/05/31 11:40:40;;;;;;;2.13;1.90;;;22.40;32.10;;;;;;5034017;28;20470;-56
2021/05/31 11:43:07;;;;;;;2.20;2.00;;;22.50;31.90;;;;;;4995671;28;20539;-58
2021/05/31 11:45:38;;;;;;;3.83;2.10;;;22.70;30.60;;;;;;5038514;28;20434;-57
2021/05/31 11:48:09;;;;;;;2.40;1.73;;;22.70;30.40;;;;;;5037676;28;20550;-59
2021/05/31 11:50:35;;;;;;;7.77;1.97;;;22.80;29.30;;;;;;5034634;28;20422;-60
2021/05/31 11:53:04;;;;;;;9.77;2.40;;;22.90;31.00;;;;;;5036217;28;20499;-61
2021/05/31 11:55:31;;;;;;;2.90;2.07;;;23.00;30.30;;;;;;5037234;28;21017;-60
2021/05/31 11:57:57;;;;;;;3.73;2.17;;;23.10;29.60;;;;;;5040276;28;20465;-62
2021/05/31 12:00:28;;;;;;;4.63;2.10;;;23.10;30.00;;;;;;5037846;28;20551;-59
2021/05/31 12:02:55;;;;;;;4.33;2.13;;;23.00;28.50;;;;;;5037112;28;20441;-62
2021/05/31 12:05:28;;;;;;;3.50;2.30;;;22.80;28.10;;;;;;5035580;28;20537;-58
2021/05/31 12:07:53;;;;;;;2.93;2.07;;;22.80;30.50;;;;;;5039605;28;20449;-59
2021/05/31 12:10:21;;;;;;;7.17;2.00;;;22.90;31.20;;;;;;5042814;28;21004;-61
2021/05/31 12:12:48;;;;;;;4.80;2.17;;;23.10;31.00;;;;;;5039510;28;20262;-59
2021/05/31 12:15:16;;;;;;;5.27;2.30;;;23.30;30.00;;;;;;5035966;28;20444;-58
2021/05/31 12:17:43;;;;;;;2.90;1.93;;;23.30;30.20;;;;;;5035542;28;20553;-60
2021/05/31 12:20:09;;;;;;;4.00;1.93;;;23.40;30.80;;;;;;5037910;28;20470;-58
2021/05/31 12:22:38;;;;;;;4.83;2.20;;;23.70;33.00;;;;;;5041558;28;20428;-60
2021/05/31 12:25:08;;;;;;;4.83;2.30;;;23.80;33.10;;;;;;5041169;28;20433;-61
2021/05/31 12:27:36;;;;;;;8.73;2.40;;;24.00;32.40;;;;;;5043342;28;20484;-57
2021/05/31 12:30:06;;;;;;;8.53;2.40;;;24.10;31.40;;;;;;5037233;28;20441;-56
2021/05/31 12:32:33;;;;;;;3.17;2.20;;;24.30;31.80;;;;;;5038461;28;20437;-59
2021/05/31 12:34:58;;;;;;;5.23;2.10;;;24.30;32.00;;;;;;5040219;28;20464;-58
2021/05/31 12:37:32;;;;;;;2.90;1.80;;;24.40;30.90;;;;;;5046236;28;21191;-59
2021/05/31 12:40:03;;;;;;;5.47;2.50;;;24.50;29.90;;;;;;5041045;28;20198;-59
2021/05/31 12:42:31;;;;;;;3.10;2.20;;;24.60;29.50;;;;;;5042163;28;20452;-61
2021/05/31 12:45:17;;;;;;;3.37;2.40;;;24.70;30.70;;;;;;5045901;28;20472;-58
2021/05/31 12:47:44;;;;;;;3.87;2.80;;;24.80;31.30;;;;;;5038848;28;20468;-59
2021/05/31 12:50:23;;;;;;;7.50;2.20;;;24.90;30.90;;;;;;5045174;28;20465;-60
2021/05/31 12:52:49;;;;;;;4.63;2.30;;;24.90;30.20;;;;;;5041862;28;20440;-61
2021/05/31 12:55:22;;;;;;;3.07;2.50;;;25.00;29.90;;;;;;5043921;28;20443;-59
2021/05/31 12:57:49;;;;;;;6.30;2.40;;;25.10;29.80;;;;;;5041962;28;20787;-56
2021/05/31 13:00:21;;;;;;;4.00;2.43;;;25.20;29.50;;;;;;5043115;28;20593;-59
2021/05/31 13:02:59;;;;;;;2.57;2.37;;;25.30;31.30;;;;;;5035675;28;20507;-60
2021/05/31 13:05:33;;;;;;;3.30;2.20;;;25.40;29.70;;;;;;5043219;28;20436;-59
2021/05/31 13:08:01;;;;;;;4.07;2.07;;;25.50;30.40;;;;;;5043838;28;21197;-57
2021/05/31 13:10:30;;;;;;;7.93;2.20;;;25.70;29.90;;;;;;5040567;28;20476;-60
2021/05/31 13:13:02;;;;;;;3.80;2.23;;;25.70;29.60;;;;;;5044710;28;20441;-59